sensor_id;sensor_type;location;lat;lon;timestamp;P1;durP1;ratioP1;P2;durP2;ratioP2
46589;SDS011;32313;48.722;9.362;2023-05-07T00:02:21;6.73;;;6.13;;
46589;SDS011;32313;48.722;9.362;2023-05-07T00:04:47;6.93;;;6.13;;
46589;SDS011;32313;48.722;9.362;2023-05-07T00:07:14;7.97;;;6.60;;
46589;SDS011;32313;48.722;9.362;2023-05-07T00:09:40;7.27;;;6.23;;
46589;SDS011;32313;48.722;9.362;2023-05-07T00:12:06;8.53;;;6.80;;
46589;SDS011;32313;48.722;9.362;2023-05-07T00:14:32;7.20;;;6.60;;
46589;SDS011;32313;48.722;9.362;2023-05-07T00:16:57;8.23;;;6.47;;
46589;SDS011;32313;48.722;9.362;2023-05-07T00:19:23;8.77;;;7.10;;
46589;SDS011;32313;48.722;9.362;2023-05-07T00:21:49;8.13;;;7.07;;
46589;SDS011;32313;48.722;9.362;2023-05-07T00:24:15;8.50;;;7.70;;
46589;SDS011;32313;48.722;9.362;2023-05-07T00:26:40;8.47;;;7.80;;
46589;SDS011;32313;48.722;9.362;2023-05-07T00:29:06;8.97;;;7.77;;
46589;SDS011;32313;48.722;9.362;2023-05-07T00:31:32;8.50;;;7.37;;
46589;SDS011;32313;48.722;9.362;2023-05-07T00:33:58;8.57;;;7.67;;
46589;SDS011;32313;48.722;9.362;2023-05-07T00:36:23;9.73;;;8.67;;
46589;SDS011;32313;48.722;9.362;2023-05-07T00:38:51;7.70;;;7.00;;
46589;SDS011;32313;48.722;9.362;2023-05-07T00:41:16;7.60;;;7.00;;
46589;SDS011;32313;48.722;9.362;2023-05-07T00:43:42;8.27;;;7.57;;
46589;SDS011;32313;48.722;9.362;2023-05-07T00:46:08;7.23;;;6.63;;
46589;SDS011;32313;48.722;9.362;2023-05-07T00:48:35;7.70;;;7.00;;
46589;SDS011;32313;48.722;9.362;2023-05-07T00:51:01;8.13;;;7.43;;
46589;SDS011;32313;48.722;9.362;2023-05-07T00:53:27;7.30;;;6.70;;
46589;SDS011;32313;48.722;9.362;2023-05-07T00:55:53;7.83;;;7.13;;
46589;SDS011;32313;48.722;9.362;2023-05-07T00:58:19;7.30;;;6.60;;
46589;SDS011;32313;48.722;9.362;2023-05-07T01:00:45;7.63;;;6.73;;
46589;SDS011;32313;48.722;9.362;2023-05-07T01:03:11;7.30;;;6.63;;
46589;SDS011;32313;48.722;9.362;2023-05-07T01:05:37;7.50;;;6.70;;
46589;SDS011;32313;48.722;9.362;2023-05-07T01:08:03;8.53;;;6.60;;
46589;SDS011;32313;48.722;9.362;2023-05-07T01:10:30;7.57;;;6.97;;
46589;SDS011;32313;48.722;9.362;2023-05-07T01:12:57;7.77;;;7.07;;
46589;SDS011;32313;48.722;9.362;2023-05-07T01:15:23;8.20;;;6.30;;
46589;SDS011;32313;48.722;9.362;2023-05-07T01:17:49;7.63;;;7.03;;
46589;SDS011;32313;48.722;9.362;2023-05-07T01:20:28;15.60;;;7.27;;
46589;SDS011;32313;48.722;9.362;2023-05-07T01:22:54;7.50;;;6.83;;
46589;SDS011;32313;48.722;9.362;2023-05-07T01:25:22;7.93;;;7.23;;
46589;SDS011;32313;48.722;9.362;2023-05-07T01:27:51;8.53;;;7.40;;
46589;SDS011;32313;48.722;9.362;2023-05-07T01:30:20;7.73;;;7.00;;
46589;SDS011;32313;48.722;9.362;2023-05-07T01:32:55;7.80;;;7.20;;
46589;SDS011;32313;48.722;9.362;2023-05-07T01:35:25;7.30;;;6.60;;
46589;SDS011;32313;48.722;9.362;2023-05-07T01:37:55;8.20;;;7.40;;
46589;SDS011;32313;48.722;9.362;2023-05-07T01:40:22;7.70;;;6.50;;
46589;SDS011;32313;48.722;9.362;2023-05-07T01:42:49;9.07;;;8.13;;
46589;SDS011;32313;48.722;9.362;2023-05-07T01:45:15;7.97;;;7.27;;
46589;SDS011;32313;48.722;9.362;2023-05-07T01:47:41;8.07;;;7.17;;
46589;SDS011;32313;48.722;9.362;2023-05-07T01:50:09;7.53;;;6.93;;
46589;SDS011;32313;48.722;9.362;2023-05-07T01:52:36;7.63;;;6.93;;
46589;SDS011;32313;48.722;9.362;2023-05-07T01:55:04;8.47;;;7.67;;
46589;SDS011;32313;48.722;9.362;2023-05-07T01:57:30;8.33;;;7.63;;
46589;SDS011;32313;48.722;9.362;2023-05-07T01:59:56;7.73;;;7.13;;
46589;SDS011;32313;48.722;9.362;2023-05-07T02:02:22;8.40;;;7.43;;
46589;SDS011;32313;48.722;9.362;2023-05-07T02:04:48;7.83;;;6.37;;
46589;SDS011;32313;48.722;9.362;2023-05-07T02:07:14;8.47;;;7.67;;
46589;SDS011;32313;48.722;9.362;2023-05-07T02:09:40;8.63;;;7.93;;
46589;SDS011;32313;48.722;9.362;2023-05-07T02:12:06;8.23;;;7.43;;
46589;SDS011;32313;48.722;9.362;2023-05-07T02:14:32;8.70;;;7.90;;
46589;SDS011;32313;48.722;9.362;2023-05-07T02:16:58;8.47;;;7.77;;
46589;SDS011;32313;48.722;9.362;2023-05-07T02:19:24;8.87;;;8.17;;
46589;SDS011;32313;48.722;9.362;2023-05-07T02:21:49;8.10;;;6.80;;
46589;SDS011;32313;48.722;9.362;2023-05-07T02:24:16;8.23;;;7.53;;
46589;SDS011;32313;48.722;9.362;2023-05-07T02:26:41;8.43;;;7.67;;
46589;SDS011;32313;48.722;9.362;2023-05-07T02:29:07;7.87;;;6.93;;
46589;SDS011;32313;48.722;9.362;2023-05-07T02:31:33;8.63;;;7.87;;
46589;SDS011;32313;48.722;9.362;2023-05-07T02:34:00;9.13;;;8.33;;
46589;SDS011;32313;48.722;9.362;2023-05-07T02:36:26;8.30;;;7.60;;
46589;SDS011;32313;48.722;9.362;2023-05-07T02:39:05;7.63;;;7.03;;
46589;SDS011;32313;48.722;9.362;2023-05-07T02:41:31;9.27;;;8.20;;
46589;SDS011;32313;48.722;9.362;2023-05-07T02:43:57;8.97;;;8.03;;
46589;SDS011;32313;48.722;9.362;2023-05-07T02:46:23;8.43;;;7.73;;
46589;SDS011;32313;48.722;9.362;2023-05-07T02:48:56;8.67;;;7.87;;
46589;SDS011;32313;48.722;9.362;2023-05-07T02:51:22;9.40;;;8.60;;
46589;SDS011;32313;48.722;9.362;2023-05-07T02:53:49;9.07;;;8.27;;
46589;SDS011;32313;48.722;9.362;2023-05-07T02:56:15;9.27;;;8.40;;
46589;SDS011;32313;48.722;9.362;2023-05-07T02:58:41;8.10;;;7.40;;
46589;SDS011;32313;48.722;9.362;2023-05-07T03:01:10;9.70;;;8.77;;
46589;SDS011;32313;48.722;9.362;2023-05-07T03:03:55;9.03;;;8.20;;
46589;SDS011;32313;48.722;9.362;2023-05-07T03:06:21;8.53;;;7.83;;
46589;SDS011;32313;48.722;9.362;2023-05-07T03:08:47;9.07;;;8.30;;
46589;SDS011;32313;48.722;9.362;2023-05-07T03:11:13;9.23;;;8.40;;
46589;SDS011;32313;48.722;9.362;2023-05-07T03:13:38;8.87;;;8.10;;
46589;SDS011;32313;48.722;9.362;2023-05-07T03:16:04;8.73;;;7.90;;
46589;SDS011;32313;48.722;9.362;2023-05-07T03:18:30;8.17;;;7.47;;
46589;SDS011;32313;48.722;9.362;2023-05-07T03:20:56;9.83;;;8.73;;
46589;SDS011;32313;48.722;9.362;2023-05-07T03:23:22;9.03;;;8.23;;
46589;SDS011;32313;48.722;9.362;2023-05-07T03:25:47;10.00;;;9.00;;
46589;SDS011;32313;48.722;9.362;2023-05-07T03:28:14;10.77;;;9.60;;
46589;SDS011;32313;48.722;9.362;2023-05-07T03:30:46;10.73;;;9.83;;
46589;SDS011;32313;48.722;9.362;2023-05-07T03:33:11;10.10;;;9.03;;
46589;SDS011;32313;48.722;9.362;2023-05-07T03:35:38;10.00;;;9.10;;
46589;SDS011;32313;48.722;9.362;2023-05-07T03:38:04;9.60;;;8.70;;
46589;SDS011;32313;48.722;9.362;2023-05-07T03:40:34;9.73;;;8.87;;
46589;SDS011;32313;48.722;9.362;2023-05-07T03:43:01;9.67;;;8.90;;
46589;SDS011;32313;48.722;9.362;2023-05-07T03:45:28;10.37;;;9.33;;
46589;SDS011;32313;48.722;9.362;2023-05-07T03:48:14;11.27;;;10.23;;
46589;SDS011;32313;48.722;9.362;2023-05-07T03:50:40;9.87;;;9.07;;
46589;SDS011;32313;48.722;9.362;2023-05-07T03:53:06;11.37;;;10.23;;
46589;SDS011;32313;48.722;9.362;2023-05-07T03:55:36;10.57;;;9.57;;
46589;SDS011;32313;48.722;9.362;2023-05-07T03:58:02;9.70;;;8.80;;
46589;SDS011;32313;48.722;9.362;2023-05-07T04:00:28;10.13;;;9.20;;
46589;SDS011;32313;48.722;9.362;2023-05-07T04:02:57;10.60;;;9.60;;
46589;SDS011;32313;48.722;9.362;2023-05-07T04:05:25;10.83;;;9.83;;
46589;SDS011;32313;48.722;9.362;2023-05-07T04:07:57;12.30;;;11.00;;
46589;SDS011;32313;48.722;9.362;2023-05-07T04:10:30;14.87;;;11.87;;
46589;SDS011;32313;48.722;9.362;2023-05-07T04:12:58;12.50;;;11.30;;
46589;SDS011;32313;48.722;9.362;2023-05-07T04:15:25;11.53;;;10.53;;
46589;SDS011;32313;48.722;9.362;2023-05-07T04:17:51;12.53;;;10.57;;
46589;SDS011;32313;48.722;9.362;2023-05-07T04:20:19;10.87;;;10.00;;
46589;SDS011;32313;48.722;9.362;2023-05-07T04:22:50;11.00;;;9.93;;
46589;SDS011;32313;48.722;9.362;2023-05-07T04:25:16;10.40;;;9.50;;
46589;SDS011;32313;48.722;9.362;2023-05-07T04:27:42;9.67;;;8.90;;
46589;SDS011;32313;48.722;9.362;2023-05-07T04:30:08;9.33;;;8.53;;
46589;SDS011;32313;48.722;9.362;2023-05-07T04:32:37;10.77;;;9.87;;
46589;SDS011;32313;48.722;9.362;2023-05-07T04:35:04;12.03;;;10.70;;
46589;SDS011;32313;48.722;9.362;2023-05-07T04:37:31;11.13;;;10.03;;
46589;SDS011;32313;48.722;9.362;2023-05-07T04:39:58;10.80;;;9.77;;
46589;SDS011;32313;48.722;9.362;2023-05-07T04:42:24;12.30;;;11.20;;
46589;SDS011;32313;48.722;9.362;2023-05-07T04:44:52;10.90;;;9.80;;
46589;SDS011;32313;48.722;9.362;2023-05-07T04:47:18;10.43;;;9.50;;
46589;SDS011;32313;48.722;9.362;2023-05-07T04:49:44;11.57;;;10.47;;
46589;SDS011;32313;48.722;9.362;2023-05-07T04:52:11;10.57;;;9.60;;
46589;SDS011;32313;48.722;9.362;2023-05-07T04:54:36;9.40;;;8.57;;
46589;SDS011;32313;48.722;9.362;2023-05-07T04:57:03;9.97;;;9.17;;
46589;SDS011;32313;48.722;9.362;2023-05-07T04:59:30;10.43;;;9.40;;
46589;SDS011;32313;48.722;9.362;2023-05-07T05:01:57;10.03;;;9.13;;
46589;SDS011;32313;48.722;9.362;2023-05-07T05:04:23;11.00;;;10.10;;
46589;SDS011;32313;48.722;9.362;2023-05-07T05:06:49;10.27;;;9.37;;
46589;SDS011;32313;48.722;9.362;2023-05-07T05:09:15;10.50;;;9.60;;
46589;SDS011;32313;48.722;9.362;2023-05-07T05:11:41;9.90;;;8.93;;
46589;SDS011;32313;48.722;9.362;2023-05-07T05:14:07;11.83;;;10.73;;
46589;SDS011;32313;48.722;9.362;2023-05-07T05:16:33;10.73;;;9.73;;
46589;SDS011;32313;48.722;9.362;2023-05-07T05:18:59;10.93;;;10.10;;
46589;SDS011;32313;48.722;9.362;2023-05-07T05:21:24;9.90;;;9.10;;
46589;SDS011;32313;48.722;9.362;2023-05-07T05:23:55;9.90;;;9.10;;
46589;SDS011;32313;48.722;9.362;2023-05-07T05:26:23;9.70;;;8.90;;
46589;SDS011;32313;48.722;9.362;2023-05-07T05:28:49;10.10;;;9.10;;
46589;SDS011;32313;48.722;9.362;2023-05-07T05:31:17;9.83;;;8.83;;
46589;SDS011;32313;48.722;9.362;2023-05-07T05:33:43;9.90;;;9.13;;
46589;SDS011;32313;48.722;9.362;2023-05-07T05:36:09;9.77;;;8.97;;
46589;SDS011;32313;48.722;9.362;2023-05-07T05:38:36;9.90;;;9.00;;
46589;SDS011;32313;48.722;9.362;2023-05-07T05:41:02;9.77;;;8.90;;
46589;SDS011;32313;48.722;9.362;2023-05-07T05:43:29;9.53;;;8.73;;
46589;SDS011;32313;48.722;9.362;2023-05-07T05:45:55;9.40;;;8.57;;
46589;SDS011;32313;48.722;9.362;2023-05-07T05:48:21;8.90;;;8.17;;
46589;SDS011;32313;48.722;9.362;2023-05-07T05:50:48;8.27;;;7.57;;
46589;SDS011;32313;48.722;9.362;2023-05-07T05:53:15;8.47;;;7.70;;
46589;SDS011;32313;48.722;9.362;2023-05-07T05:55:42;8.60;;;7.90;;
46589;SDS011;32313;48.722;9.362;2023-05-07T05:58:09;8.37;;;7.77;;
46589;SDS011;32313;48.722;9.362;2023-05-07T06:00:38;8.63;;;7.77;;
46589;SDS011;32313;48.722;9.362;2023-05-07T06:03:05;7.67;;;6.77;;
46589;SDS011;32313;48.722;9.362;2023-05-07T06:05:31;7.63;;;6.90;;
46589;SDS011;32313;48.722;9.362;2023-05-07T06:07:57;9.10;;;7.03;;
46589;SDS011;32313;48.722;9.362;2023-05-07T06:10:25;7.53;;;6.83;;
46589;SDS011;32313;48.722;9.362;2023-05-07T06:12:52;7.53;;;6.73;;
46589;SDS011;32313;48.722;9.362;2023-05-07T06:15:18;9.37;;;6.67;;
46589;SDS011;32313;48.722;9.362;2023-05-07T06:17:45;7.33;;;6.63;;
46589;SDS011;32313;48.722;9.362;2023-05-07T06:20:10;6.40;;;5.80;;
46589;SDS011;32313;48.722;9.362;2023-05-07T06:22:37;7.27;;;6.17;;
46589;SDS011;32313;48.722;9.362;2023-05-07T06:25:03;7.43;;;5.80;;
46589;SDS011;32313;48.722;9.362;2023-05-07T06:27:30;6.13;;;5.47;;
46589;SDS011;32313;48.722;9.362;2023-05-07T06:29:56;7.37;;;5.37;;
46589;SDS011;32313;48.722;9.362;2023-05-07T06:32:22;5.17;;;4.77;;
46589;SDS011;32313;48.722;9.362;2023-05-07T06:34:49;5.00;;;4.60;;
46589;SDS011;32313;48.722;9.362;2023-05-07T06:37:15;5.67;;;5.13;;
46589;SDS011;32313;48.722;9.362;2023-05-07T06:40:01;9.50;;;5.13;;
46589;SDS011;32313;48.722;9.362;2023-05-07T06:42:29;5.80;;;4.60;;
46589;SDS011;32313;48.722;9.362;2023-05-07T06:44:58;6.60;;;4.80;;
46589;SDS011;32313;48.722;9.362;2023-05-07T06:47:25;11.60;;;4.63;;
46589;SDS011;32313;48.722;9.362;2023-05-07T06:49:53;6.40;;;4.43;;
46589;SDS011;32313;48.722;9.362;2023-05-07T06:52:22;5.00;;;4.57;;
46589;SDS011;32313;48.722;9.362;2023-05-07T06:54:49;4.50;;;4.03;;
46589;SDS011;32313;48.722;9.362;2023-05-07T06:57:17;3.80;;;3.40;;
46589;SDS011;32313;48.722;9.362;2023-05-07T06:59:42;5.33;;;3.90;;
46589;SDS011;32313;48.722;9.362;2023-05-07T07:02:09;4.07;;;3.70;;
46589;SDS011;32313;48.722;9.362;2023-05-07T07:04:35;5.83;;;3.53;;
46589;SDS011;32313;48.722;9.362;2023-05-07T07:07:04;3.50;;;3.17;;
46589;SDS011;32313;48.722;9.362;2023-05-07T07:09:30;5.83;;;3.80;;
46589;SDS011;32313;48.722;9.362;2023-05-07T07:11:57;3.80;;;3.10;;
46589;SDS011;32313;48.722;9.362;2023-05-07T07:14:23;4.30;;;3.03;;
46589;SDS011;32313;48.722;9.362;2023-05-07T07:16:51;3.73;;;2.97;;
46589;SDS011;32313;48.722;9.362;2023-05-07T07:19:18;3.90;;;2.63;;
46589;SDS011;32313;48.722;9.362;2023-05-07T07:21:46;3.90;;;2.80;;
46589;SDS011;32313;48.722;9.362;2023-05-07T07:24:14;3.30;;;2.70;;
46589;SDS011;32313;48.722;9.362;2023-05-07T07:26:45;3.53;;;2.77;;
46589;SDS011;32313;48.722;9.362;2023-05-07T07:29:11;2.70;;;2.50;;
46589;SDS011;32313;48.722;9.362;2023-05-07T07:31:37;2.40;;;2.20;;
46589;SDS011;32313;48.722;9.362;2023-05-07T07:34:03;3.37;;;2.67;;
46589;SDS011;32313;48.722;9.362;2023-05-07T07:36:29;5.60;;;2.90;;
46589;SDS011;32313;48.722;9.362;2023-05-07T07:38:55;2.83;;;2.53;;
46589;SDS011;32313;48.722;9.362;2023-05-07T07:41:21;4.43;;;2.53;;
46589;SDS011;32313;48.722;9.362;2023-05-07T07:43:46;4.47;;;2.40;;
46589;SDS011;32313;48.722;9.362;2023-05-07T07:46:12;4.83;;;2.43;;
46589;SDS011;32313;48.722;9.362;2023-05-07T07:48:38;3.03;;;2.33;;
46589;SDS011;32313;48.722;9.362;2023-05-07T07:51:04;4.15;;;2.47;;
46589;SDS011;32313;48.722;9.362;2023-05-07T07:53:31;4.03;;;2.10;;
46589;SDS011;32313;48.722;9.362;2023-05-07T07:55:56;2.58;;;2.20;;
46589;SDS011;32313;48.722;9.362;2023-05-07T07:58:25;3.75;;;2.03;;
46589;SDS011;32313;48.722;9.362;2023-05-07T08:00:51;1.92;;;1.73;;
46589;SDS011;32313;48.722;9.362;2023-05-07T08:03:16;2.38;;;1.88;;
46589;SDS011;32313;48.722;9.362;2023-05-07T08:05:46;4.30;;;2.30;;
46589;SDS011;32313;48.722;9.362;2023-05-07T08:08:12;2.40;;;1.80;;
46589;SDS011;32313;48.722;9.362;2023-05-07T08:10:39;2.58;;;1.75;;
46589;SDS011;32313;48.722;9.362;2023-05-07T08:13:11;2.28;;;2.08;;
46589;SDS011;32313;48.722;9.362;2023-05-07T08:15:39;3.63;;;2.17;;
46589;SDS011;32313;48.722;9.362;2023-05-07T08:18:05;2.25;;;2.03;;
46589;SDS011;32313;48.722;9.362;2023-05-07T08:20:32;4.63;;;2.00;;
46589;SDS011;32313;48.722;9.362;2023-05-07T08:22:59;2.28;;;2.08;;
46589;SDS011;32313;48.722;9.362;2023-05-07T08:25:26;2.20;;;1.95;;
46589;SDS011;32313;48.722;9.362;2023-05-07T08:27:51;2.60;;;2.40;;
46589;SDS011;32313;48.722;9.362;2023-05-07T08:30:18;2.72;;;2.17;;
46589;SDS011;32313;48.722;9.362;2023-05-07T08:32:43;2.92;;;2.58;;
46589;SDS011;32313;48.722;9.362;2023-05-07T08:35:09;2.72;;;2.00;;
46589;SDS011;32313;48.722;9.362;2023-05-07T08:37:35;4.28;;;2.70;;
46589;SDS011;32313;48.722;9.362;2023-05-07T08:40:01;3.05;;;2.10;;
46589;SDS011;32313;48.722;9.362;2023-05-07T08:42:31;2.03;;;1.85;;
46589;SDS011;32313;48.722;9.362;2023-05-07T08:45:00;3.03;;;2.10;;
46589;SDS011;32313;48.722;9.362;2023-05-07T08:47:34;3.08;;;2.25;;
46589;SDS011;32313;48.722;9.362;2023-05-07T08:50:05;2.15;;;1.77;;
46589;SDS011;32313;48.722;9.362;2023-05-07T08:52:32;3.28;;;1.85;;
46589;SDS011;32313;48.722;9.362;2023-05-07T08:54:58;2.22;;;1.92;;
46589;SDS011;32313;48.722;9.362;2023-05-07T08:57:25;2.30;;;1.95;;
46589;SDS011;32313;48.722;9.362;2023-05-07T08:59:52;3.15;;;1.90;;
46589;SDS011;32313;48.722;9.362;2023-05-07T09:02:17;4.78;;;2.30;;
46589;SDS011;32313;48.722;9.362;2023-05-07T09:04:44;1.70;;;1.60;;
46589;SDS011;32313;48.722;9.362;2023-05-07T09:07:09;2.88;;;2.38;;
46589;SDS011;32313;48.722;9.362;2023-05-07T09:09:40;3.50;;;2.35;;
46589;SDS011;32313;48.722;9.362;2023-05-07T09:12:06;2.78;;;2.58;;
46589;SDS011;32313;48.722;9.362;2023-05-07T09:14:33;3.67;;;2.20;;
46589;SDS011;32313;48.722;9.362;2023-05-07T09:17:01;3.38;;;1.98;;
46589;SDS011;32313;48.722;9.362;2023-05-07T09:19:27;3.67;;;2.00;;
46589;SDS011;32313;48.722;9.362;2023-05-07T09:22:01;2.03;;;1.75;;
46589;SDS011;32313;48.722;9.362;2023-05-07T09:24:35;2.28;;;2.00;;
46589;SDS011;32313;48.722;9.362;2023-05-07T09:27:05;3.28;;;2.25;;
46589;SDS011;32313;48.722;9.362;2023-05-07T09:29:31;2.55;;;1.50;;
46589;SDS011;32313;48.722;9.362;2023-05-07T09:32:03;2.78;;;2.03;;
46589;SDS011;32313;48.722;9.362;2023-05-07T09:34:32;1.90;;;1.70;;
46589;SDS011;32313;48.722;9.362;2023-05-07T09:37:03;1.77;;;1.67;;
46589;SDS011;32313;48.722;9.362;2023-05-07T09:42:10;2.42;;;1.75;;
46589;SDS011;32313;48.722;9.362;2023-05-07T09:44:37;1.73;;;1.48;;
46589;SDS011;32313;48.722;9.362;2023-05-07T09:47:07;2.08;;;1.83;;
46589;SDS011;32313;48.722;9.362;2023-05-07T09:49:39;1.73;;;1.63;;
46589;SDS011;32313;48.722;9.362;2023-05-07T09:52:09;2.65;;;2.08;;
46589;SDS011;32313;48.722;9.362;2023-05-07T09:54:39;3.30;;;1.98;;
46589;SDS011;32313;48.722;9.362;2023-05-07T09:57:09;4.00;;;1.90;;
46589;SDS011;32313;48.722;9.362;2023-05-07T09:59:38;4.32;;;1.88;;
46589;SDS011;32313;48.722;9.362;2023-05-07T10:02:09;2.25;;;1.60;;
46589;SDS011;32313;48.722;9.362;2023-05-07T10:04:43;2.35;;;1.65;;
46589;SDS011;32313;48.722;9.362;2023-05-07T10:07:10;2.58;;;1.95;;
46589;SDS011;32313;48.722;9.362;2023-05-07T10:09:36;2.00;;;1.80;;
46589;SDS011;32313;48.722;9.362;2023-05-07T10:12:06;2.33;;;1.60;;
46589;SDS011;32313;48.722;9.362;2023-05-07T10:14:33;1.77;;;1.63;;
46589;SDS011;32313;48.722;9.362;2023-05-07T10:16:59;2.17;;;1.52;;
46589;SDS011;32313;48.722;9.362;2023-05-07T10:19:27;3.10;;;2.20;;
46589;SDS011;32313;48.722;9.362;2023-05-07T10:21:56;2.92;;;2.10;;
46589;SDS011;32313;48.722;9.362;2023-05-07T10:24:30;1.92;;;1.55;;
46589;SDS011;32313;48.722;9.362;2023-05-07T10:27:00;2.45;;;1.70;;
46589;SDS011;32313;48.722;9.362;2023-05-07T10:29:43;2.63;;;1.80;;
46589;SDS011;32313;48.722;9.362;2023-05-07T10:35:17;1.65;;;1.45;;
46589;SDS011;32313;48.722;9.362;2023-05-07T10:37:47;1.95;;;1.80;;
46589;SDS011;32313;48.722;9.362;2023-05-07T10:40:14;1.80;;;1.58;;
46589;SDS011;32313;48.722;9.362;2023-05-07T10:42:52;2.47;;;1.60;;
46589;SDS011;32313;48.722;9.362;2023-05-07T10:45:22;3.35;;;1.50;;
46589;SDS011;32313;48.722;9.362;2023-05-07T10:50:35;2.50;;;1.50;;
46589;SDS011;32313;48.722;9.362;2023-05-07T10:58:48;2.17;;;1.27;;
46589;SDS011;32313;48.722;9.362;2023-05-07T11:01:49;2.15;;;1.40;;
46589;SDS011;32313;48.722;9.362;2023-05-07T11:04:36;1.50;;;1.40;;
46589;SDS011;32313;48.722;9.362;2023-05-07T11:07:21;3.58;;;1.70;;
46589;SDS011;32313;48.722;9.362;2023-05-07T11:17:35;2.13;;;1.73;;
46589;SDS011;32313;48.722;9.362;2023-05-07T11:26:24;3.83;;;1.48;;
46589;SDS011;32313;48.722;9.362;2023-05-07T11:28:50;1.60;;;1.13;;
46589;SDS011;32313;48.722;9.362;2023-05-07T11:31:21;1.45;;;1.30;;
46589;SDS011;32313;48.722;9.362;2023-05-07T11:33:49;1.65;;;1.40;;
46589;SDS011;32313;48.722;9.362;2023-05-07T11:36:20;2.20;;;1.50;;
46589;SDS011;32313;48.722;9.362;2023-05-07T11:38:49;2.47;;;1.63;;
46589;SDS011;32313;48.722;9.362;2023-05-07T11:41:16;2.03;;;1.27;;
46589;SDS011;32313;48.722;9.362;2023-05-07T11:43:55;3.00;;;1.65;;
46589;SDS011;32313;48.722;9.362;2023-05-07T11:46:21;2.47;;;1.30;;
46589;SDS011;32313;48.722;9.362;2023-05-07T11:48:47;2.65;;;1.35;;
46589;SDS011;32313;48.722;9.362;2023-05-07T11:51:13;2.10;;;1.27;;
46589;SDS011;32313;48.722;9.362;2023-05-07T11:53:44;2.72;;;1.75;;
46589;SDS011;32313;48.722;9.362;2023-05-07T11:56:11;1.60;;;1.38;;
46589;SDS011;32313;48.722;9.362;2023-05-07T11:58:40;1.77;;;1.48;;
46589;SDS011;32313;48.722;9.362;2023-05-07T12:01:10;2.40;;;1.58;;
46589;SDS011;32313;48.722;9.362;2023-05-07T12:03:39;3.05;;;1.33;;
46589;SDS011;32313;48.722;9.362;2023-05-07T12:06:09;1.73;;;1.60;;
46589;SDS011;32313;48.722;9.362;2023-05-07T12:08:36;2.00;;;1.63;;
46589;SDS011;32313;48.722;9.362;2023-05-07T12:11:06;3.70;;;1.52;;
46589;SDS011;32313;48.722;9.362;2023-05-07T12:13:34;2.63;;;1.70;;
46589;SDS011;32313;48.722;9.362;2023-05-07T12:16:00;2.38;;;1.70;;
46589;SDS011;32313;48.722;9.362;2023-05-07T12:18:28;2.55;;;1.55;;
46589;SDS011;32313;48.722;9.362;2023-05-07T12:20:55;2.72;;;1.75;;
46589;SDS011;32313;48.722;9.362;2023-05-07T12:23:21;3.08;;;1.65;;
46589;SDS011;32313;48.722;9.362;2023-05-07T12:25:47;2.28;;;1.63;;
46589;SDS011;32313;48.722;9.362;2023-05-07T12:28:14;2.20;;;1.48;;
46589;SDS011;32313;48.722;9.362;2023-05-07T12:30:44;3.30;;;1.80;;
46589;SDS011;32313;48.722;9.362;2023-05-07T12:33:11;3.78;;;2.00;;
46589;SDS011;32313;48.722;9.362;2023-05-07T12:35:40;3.15;;;1.83;;
46589;SDS011;32313;48.722;9.362;2023-05-07T12:38:08;2.95;;;1.90;;
46589;SDS011;32313;48.722;9.362;2023-05-07T12:40:36;1.73;;;1.58;;
46589;SDS011;32313;48.722;9.362;2023-05-07T12:43:03;2.10;;;1.90;;
46589;SDS011;32313;48.722;9.362;2023-05-07T12:45:29;3.33;;;1.60;;
46589;SDS011;32313;48.722;9.362;2023-05-07T12:47:54;1.83;;;1.70;;
46589;SDS011;32313;48.722;9.362;2023-05-07T12:50:21;1.67;;;1.57;;
46589;SDS011;32313;48.722;9.362;2023-05-07T12:52:47;4.03;;;1.90;;
46589;SDS011;32313;48.722;9.362;2023-05-07T12:55:16;2.20;;;1.80;;
46589;SDS011;32313;48.722;9.362;2023-05-07T12:57:43;2.87;;;1.80;;
46589;SDS011;32313;48.722;9.362;2023-05-07T13:00:12;1.90;;;1.70;;
46589;SDS011;32313;48.722;9.362;2023-05-07T13:02:39;3.67;;;2.10;;
46589;SDS011;32313;48.722;9.362;2023-05-07T13:05:07;7.07;;;2.20;;
46589;SDS011;32313;48.722;9.362;2023-05-07T13:07:33;4.47;;;2.40;;
46589;SDS011;32313;48.722;9.362;2023-05-07T13:09:59;2.83;;;2.50;;
46589;SDS011;32313;48.722;9.362;2023-05-07T13:12:25;2.63;;;2.43;;
46589;SDS011;32313;48.722;9.362;2023-05-07T13:14:50;4.77;;;2.73;;
46589;SDS011;32313;48.722;9.362;2023-05-07T13:17:16;7.87;;;3.30;;
46589;SDS011;32313;48.722;9.362;2023-05-07T13:19:42;4.53;;;3.60;;
46589;SDS011;32313;48.722;9.362;2023-05-07T13:22:07;4.63;;;4.00;;
46589;SDS011;32313;48.722;9.362;2023-05-07T13:24:33;5.27;;;3.70;;
46589;SDS011;32313;48.722;9.362;2023-05-07T13:26:58;6.87;;;3.77;;
46589;SDS011;32313;48.722;9.362;2023-05-07T13:29:24;4.67;;;3.50;;
46589;SDS011;32313;48.722;9.362;2023-05-07T13:31:54;3.83;;;3.50;;
46589;SDS011;32313;48.722;9.362;2023-05-07T13:34:23;4.63;;;3.30;;
46589;SDS011;32313;48.722;9.362;2023-05-07T13:36:49;4.50;;;3.50;;
46589;SDS011;32313;48.722;9.362;2023-05-07T13:39:15;3.80;;;3.50;;
46589;SDS011;32313;48.722;9.362;2023-05-07T13:41:40;4.73;;;4.20;;
46589;SDS011;32313;48.722;9.362;2023-05-07T13:44:06;5.07;;;3.83;;
46589;SDS011;32313;48.722;9.362;2023-05-07T13:46:32;5.43;;;3.73;;
46589;SDS011;32313;48.722;9.362;2023-05-07T13:48:58;5.60;;;3.83;;
46589;SDS011;32313;48.722;9.362;2023-05-07T13:51:23;3.73;;;2.93;;
46589;SDS011;32313;48.722;9.362;2023-05-07T13:53:49;4.57;;;2.67;;
46589;SDS011;32313;48.722;9.362;2023-05-07T13:56:15;6.60;;;3.57;;
46589;SDS011;32313;48.722;9.362;2023-05-07T13:58:41;6.20;;;3.07;;
46589;SDS011;32313;48.722;9.362;2023-05-07T14:01:06;2.83;;;2.57;;
46589;SDS011;32313;48.722;9.362;2023-05-07T14:03:32;4.37;;;3.80;;
46589;SDS011;32313;48.722;9.362;2023-05-07T14:05:59;6.07;;;3.80;;
46589;SDS011;32313;48.722;9.362;2023-05-07T14:08:26;5.13;;;3.83;;
46589;SDS011;32313;48.722;9.362;2023-05-07T14:10:52;4.27;;;3.70;;
46589;SDS011;32313;48.722;9.362;2023-05-07T14:13:18;3.97;;;3.63;;
46589;SDS011;32313;48.722;9.362;2023-05-07T14:15:44;3.53;;;3.17;;
46589;SDS011;32313;48.722;9.362;2023-05-07T14:18:11;3.37;;;3.03;;
46589;SDS011;32313;48.722;9.362;2023-05-07T14:20:38;4.23;;;3.10;;
46589;SDS011;32313;48.722;9.362;2023-05-07T14:23:03;3.67;;;2.77;;
46589;SDS011;32313;48.722;9.362;2023-05-07T14:25:29;3.03;;;2.70;;
46589;SDS011;32313;48.722;9.362;2023-05-07T14:27:55;4.03;;;2.90;;
46589;SDS011;32313;48.722;9.362;2023-05-07T14:30:21;4.40;;;3.87;;
46589;SDS011;32313;48.722;9.362;2023-05-07T14:32:49;6.53;;;3.70;;
46589;SDS011;32313;48.722;9.362;2023-05-07T14:35:15;6.90;;;3.77;;
46589;SDS011;32313;48.722;9.362;2023-05-07T14:37:42;6.90;;;4.20;;
46589;SDS011;32313;48.722;9.362;2023-05-07T14:40:08;9.17;;;5.00;;
46589;SDS011;32313;48.722;9.362;2023-05-07T14:42:34;7.53;;;4.60;;
46589;SDS011;32313;48.722;9.362;2023-05-07T14:45:00;13.43;;;5.53;;
46589;SDS011;32313;48.722;9.362;2023-05-07T14:47:26;10.07;;;7.10;;
46589;SDS011;32313;48.722;9.362;2023-05-07T14:49:52;6.03;;;5.30;;
46589;SDS011;32313;48.722;9.362;2023-05-07T14:52:18;10.40;;;6.23;;
46589;SDS011;32313;48.722;9.362;2023-05-07T14:54:44;8.13;;;5.63;;
46589;SDS011;32313;48.722;9.362;2023-05-07T14:57:10;8.17;;;5.67;;
46589;SDS011;32313;48.722;9.362;2023-05-07T14:59:38;6.93;;;5.90;;
46589;SDS011;32313;48.722;9.362;2023-05-07T15:02:04;9.47;;;7.37;;
46589;SDS011;32313;48.722;9.362;2023-05-07T15:04:33;8.87;;;6.33;;
46589;SDS011;32313;48.722;9.362;2023-05-07T15:06:59;6.47;;;5.97;;
46589;SDS011;32313;48.722;9.362;2023-05-07T15:09:25;7.30;;;6.10;;
46589;SDS011;32313;48.722;9.362;2023-05-07T15:11:51;10.13;;;6.83;;
46589;SDS011;32313;48.722;9.362;2023-05-07T15:14:17;10.53;;;6.30;;
46589;SDS011;32313;48.722;9.362;2023-05-07T15:16:43;8.17;;;7.20;;